»·PEaware :: SWA1074 KAMA-KLAS

SWA1074 :: KAMA-KLAS

FLIGHT INFORMATION

Flight Status: Arrived
Operator:
Southwest Airlines
More flights by this operator :: More flights under this callsign
Pilot: Mark H. (209)
Aircraft: BOEING 737-700
(B737)
More flights by this aircraft type
Origin: KAMA Amarillo Intl
United States
Destination: KLAS McCarran Intl
United States
More flights between these airports :: More routes between these airports
Route: +TCC J6 ABQ J72 PGS TYSSN5
File this flight plan on PilotEdge
Remarks:
Altitude:
(Current/Filed)
34,000ft
Speed:
(Current/Filed)
280kts
Departed: 07-Jan-18 10:39 AM
Arrived: 07-Jan-18 12:36 PM
Distance/Time
Traveled:
657nm/1:56
Distance/Time
To Go:
Arrived

Flight Plot

Page will automatically refresh every two minutes.

Flight plan parsing failed; only flown route is shown


Map Options




Map Legend


Flown Route
Filed Route
Departure Airport
Arrival Airport
Navaid (VOR, NDB)
Fix

Horizontal Profiles

Position Reports

Time Latitude Longitude Heading Altitude Ground
Speed
07-Jan-18 09:54 35.218176 -101.709229 127 3615ft 0kts
07-Jan-18 09:55 35.218176 -101.709229 127 3615ft 0kts
07-Jan-18 09:56 35.218176 -101.709229 127 3615ft 0kts
07-Jan-18 09:57 35.218176 -101.709229 127 3615ft 0kts
07-Jan-18 09:58 35.218176 -101.709229 127 3615ft 0kts
07-Jan-18 09:59 35.218176 -101.709229 127 3615ft 0kts
07-Jan-18 10:00 35.218176 -101.709229 127 3615ft 0kts
07-Jan-18 10:01 35.218176 -101.709229 127 3615ft 0kts
07-Jan-18 10:02 35.218176 -101.709229 127 3615ft 0kts
07-Jan-18 10:03 35.218176 -101.709229 127 3615ft 0kts
07-Jan-18 10:04 35.218176 -101.709229 127 3615ft 0kts
07-Jan-18 10:05 35.218176 -101.709229 127 3615ft 0kts
07-Jan-18 10:06 35.218176 -101.709229 127 3615ft 0kts
07-Jan-18 10:07 35.218176 -101.709229 127 3615ft 0kts
07-Jan-18 10:08 35.218176 -101.709229 127 3615ft 0kts
07-Jan-18 10:09 35.218176 -101.709229 127 3615ft 0kts
07-Jan-18 10:10 35.218176 -101.709229 127 3615ft 0kts
07-Jan-18 10:11 35.218176 -101.709229 127 3615ft 0kts
07-Jan-18 10:12 35.218176 -101.709229 127 3615ft 0kts
07-Jan-18 10:13 35.218176 -101.709229 127 3615ft 0kts
07-Jan-18 10:14 35.218176 -101.709229 127 3615ft 0kts
07-Jan-18 10:15 35.218176 -101.709229 127 3615ft 0kts
07-Jan-18 10:16 35.218176 -101.709229 127 3615ft 0kts
07-Jan-18 10:17 35.218176 -101.709229 127 3615ft 0kts
07-Jan-18 10:18 35.218176 -101.709229 127 3615ft 0kts
07-Jan-18 10:19 35.218176 -101.709229 127 3615ft 0kts
07-Jan-18 10:20 35.218176 -101.709229 127 3615ft 0kts
07-Jan-18 10:21 35.218176 -101.709229 127 3615ft 0kts
07-Jan-18 10:22 35.218176 -101.709229 127 3615ft 0kts
07-Jan-18 10:23 35.218176 -101.709229 127 3615ft 0kts
07-Jan-18 10:24 35.218176 -101.709229 127 3615ft 0kts
07-Jan-18 10:25 35.218176 -101.709229 127 3615ft 0kts
07-Jan-18 10:26 35.218176 -101.709229 127 3615ft 0kts
07-Jan-18 10:27 35.218176 -101.709229 127 3615ft 0kts
07-Jan-18 10:28 35.218176 -101.709229 127 3615ft 0kts
07-Jan-18 10:29 35.218176 -101.709229 127 3615ft 0kts
07-Jan-18 10:30 35.218176 -101.709229 127 3615ft 0kts
07-Jan-18 10:31 35.218176 -101.709229 127 3615ft 0kts
07-Jan-18 10:32 35.218176 -101.709229 127 3615ft 0kts
07-Jan-18 10:33 35.218176 -101.709229 127 3615ft 0kts
07-Jan-18 10:34 35.218176 -101.709229 127 3615ft 0kts
07-Jan-18 10:35 35.218176 -101.709229 127 3615ft 0kts
07-Jan-18 10:36 35.218176 -101.709229 127 3615ft 0kts
07-Jan-18 10:37 35.218176 -101.709229 127 3615ft 0kts
07-Jan-18 10:38 35.218176 -101.709229 127 3615ft 0kts
07-Jan-18 10:39 35.218176 -101.709229 127 3615ft 0kts
07-Jan-18 10:40 35.218445 -101.709480 168 3615ft 2kts
07-Jan-18 10:41 35.218681 -101.710072 287 3615ft 17kts
07-Jan-18 10:42 35.222015 -101.707647 45 3615ft 25kts
07-Jan-18 10:43 35.228454 -101.699406 41 3615ft 25kts
07-Jan-18 10:44 35.224736 -101.693818 136 3615ft 33kts
07-Jan-18 10:45 35.216981 -101.685189 136 3615ft 44kts
07-Jan-18 10:46 35.213369 -101.679739 42 3615ft 5kts
07-Jan-18 10:47 35.229321 -101.696673 318 3770ft 203kts
07-Jan-18 10:48 35.273066 -101.747594 318 5032ft 204kts
07-Jan-18 10:49 35.308679 -101.793021 317 6579ft 183kts
07-Jan-18 10:50 35.326237 -101.843010 249 8536ft 227kts
07-Jan-18 10:51 35.276708 -101.906280 229 10859ft 285kts
07-Jan-18 10:52 35.227871 -101.970890 247 12843ft 287kts
07-Jan-18 10:53 35.214317 -102.064477 273 14941ft 284kts
07-Jan-18 10:54 35.213134 -102.160950 273 16737ft 286kts
07-Jan-18 10:55 35.211618 -102.265450 272 18592ft 347kts
07-Jan-18 10:56 35.209485 -102.386331 271 20409ft 361kts
07-Jan-18 10:57 35.207250 -102.510740 271 22213ft 371kts
07-Jan-18 10:58 35.204812 -102.638791 271 24022ft 381kts
07-Jan-18 10:59 35.202186 -102.769782 271 25825ft 390kts
07-Jan-18 11:00 35.199353 -102.903596 272 27627ft 398kts
07-Jan-18 11:01 35.196306 -103.040755 272 29436ft 407kts
07-Jan-18 11:02 35.193043 -103.180344 272 31238ft 415kts
07-Jan-18 11:03 35.189534 -103.321367 272 32504ft 409kts
07-Jan-18 11:04 35.185979 -103.457681 273 33495ft 396kts
07-Jan-18 11:05 35.182425 -103.591999 273 34087ft 398kts
07-Jan-18 11:06 35.178392 -103.726986 272 34088ft 393kts
07-Jan-18 11:07 35.174197 -103.859807 273 34093ft 390kts
07-Jan-18 11:08 35.169920 -103.992213 273 34091ft 390kts
07-Jan-18 11:09 35.165477 -104.124833 273 34101ft 389kts
07-Jan-18 11:10 35.160919 -104.256716 273 34113ft 389kts
07-Jan-18 11:11 35.156206 -104.388890 273 34124ft 388kts
07-Jan-18 11:12 35.151373 -104.520318 273 34135ft 387kts
07-Jan-18 11:13 35.146439 -104.650664 273 34144ft 386kts
07-Jan-18 11:14 35.141288 -104.782967 273 34153ft 386kts
07-Jan-18 11:15 35.136054 -104.913715 273 34161ft 385kts
07-Jan-18 11:16 35.130685 -105.044329 273 34168ft 385kts
07-Jan-18 11:17 35.125163 -105.175159 273 34182ft 384kts
07-Jan-18 11:18 35.119528 -105.305424 273 34180ft 384kts
07-Jan-18 11:19 35.113735 -105.436010 273 34184ft 384kts
07-Jan-18 11:20 35.107821 -105.566153 272 34187ft 384kts
07-Jan-18 11:21 35.101769 -105.696241 272 34190ft 384kts
07-Jan-18 11:22 35.095558 -105.826723 272 34198ft 384kts
07-Jan-18 11:23 35.089228 -105.956669 272 34210ft 383kts
07-Jan-18 11:24 35.082769 -106.086336 272 34218ft 382kts
07-Jan-18 11:25 35.076189 -106.215651 272 34225ft 380kts
07-Jan-18 11:26 35.069534 -106.344294 272 34235ft 384kts
07-Jan-18 11:27 35.062524 -106.478390 272 34245ft 403kts
07-Jan-18 11:28 35.055037 -106.615293 272 34248ft 405kts
07-Jan-18 11:29 35.047411 -106.752707 272 34248ft 404kts
07-Jan-18 11:30 35.058755 -106.885239 289 34255ft 391kts
07-Jan-18 11:31 35.087049 -107.013252 288 34249ft 391kts
07-Jan-18 11:32 35.114868 -107.141942 288 34251ft 391kts
07-Jan-18 11:33 35.142592 -107.270250 288 34254ft 391kts
07-Jan-18 11:34 35.170187 -107.398620 288 34263ft 391kts
07-Jan-18 11:35 35.197751 -107.527569 288 34270ft 391kts
07-Jan-18 11:36 35.225108 -107.656277 288 34276ft 392kts
07-Jan-18 11:37 35.252202 -107.784475 288 34278ft 393kts
07-Jan-18 11:38 35.279683 -107.915248 288 34288ft 394kts
07-Jan-18 11:39 35.306818 -108.045144 288 34290ft 394kts
07-Jan-18 11:40 35.333843 -108.175311 288 34293ft 393kts
07-Jan-18 11:41 35.360594 -108.304848 288 34299ft 392kts
07-Jan-18 11:42 35.387280 -108.434851 287 34305ft 392kts
07-Jan-18 11:43 35.413713 -108.564386 287 34311ft 392kts
07-Jan-18 11:44 35.439946 -108.693722 287 34317ft 391kts
07-Jan-18 11:45 35.466069 -108.823266 287 34317ft 390kts
07-Jan-18 11:46 35.480189 -108.955424 278 34320ft 394kts
07-Jan-18 11:47 35.486890 -109.089214 279 34311ft 392kts
07-Jan-18 11:48 35.493446 -109.222497 279 34308ft 391kts
07-Jan-18 11:49 35.499826 -109.355870 278 34308ft 390kts
07-Jan-18 11:50 35.506042 -109.488940 278 34311ft 389kts
07-Jan-18 11:51 35.512088 -109.621511 278 34312ft 389kts
07-Jan-18 11:52 35.517994 -109.754184 278 34315ft 390kts
07-Jan-18 11:53 35.523771 -109.887375 278 34320ft 390kts
07-Jan-18 11:54 35.529421 -110.020233 278 34314ft 390kts
07-Jan-18 11:55 35.534818 -110.153197 278 34320ft 389kts
07-Jan-18 11:56 35.540152 -110.285602 278 34332ft 388kts
07-Jan-18 11:57 35.545315 -110.417853 278 34334ft 388kts
07-Jan-18 11:58 35.550330 -110.550358 278 34334ft 387kts
07-Jan-18 11:59 35.555181 -110.682103 277 34337ft 386kts
07-Jan-18 12:00 35.559915 -110.813038 277 34336ft 385kts
07-Jan-18 12:01 35.564478 -110.945071 277 34336ft 384kts
07-Jan-18 12:02 35.568860 -111.075867 277 34336ft 383kts
07-Jan-18 12:03 35.573050 -111.206883 277 34337ft 383kts
07-Jan-18 12:04 35.577106 -111.337249 277 34337ft 382kts
07-Jan-18 12:05 35.581037 -111.467393 277 34338ft 381kts
07-Jan-18 12:06 35.584840 -111.597939 277 34340ft 381kts
07-Jan-18 12:07 35.588486 -111.727911 277 34328ft 381kts
07-Jan-18 12:08 35.591993 -111.857831 277 34310ft 381kts
07-Jan-18 12:09 35.595362 -111.988137 277 34308ft 381kts
07-Jan-18 12:10 35.598561 -112.116799 277 34307ft 381kts
07-Jan-18 12:11 35.601683 -112.248586 277 34300ft 381kts
07-Jan-18 12:12 35.604630 -112.378743 276 34298ft 381kts
07-Jan-18 12:13 35.607438 -112.508955 276 34299ft 382kts
07-Jan-18 12:14 35.610118 -112.639849 275 34297ft 382kts
07-Jan-18 12:15 35.612725 -112.772082 275 33323ft 393kts
07-Jan-18 12:16 35.615143 -112.906229 275 31515ft 393kts
07-Jan-18 12:17 35.617447 -113.040755 274 29674ft 386kts
07-Jan-18 12:18 35.619442 -113.169025 274 27862ft 371kts
07-Jan-18 12:19 35.621373 -113.295689 274 25981ft 370kts
07-Jan-18 12:20 35.623171 -113.422761 273 24082ft 374kts
07-Jan-18 12:21 35.625676 -113.550697 278 22242ft 372kts
07-Jan-18 12:22 35.643507 -113.675123 281 20443ft 366kts
07-Jan-18 12:23 35.660788 -113.797126 281 18645ft 358kts
07-Jan-18 12:24 35.677666 -113.916624 281 16887ft 349kts
07-Jan-18 12:25 35.693012 -114.026358 281 15322ft 300kts
07-Jan-18 12:26 35.706771 -114.124938 281 13919ft 289kts
07-Jan-18 12:27 35.720213 -114.222075 281 12516ft 286kts
07-Jan-18 12:28 35.733486 -114.318551 280 11995ft 281kts
07-Jan-18 12:29 35.772161 -114.397453 332 11996ft 281kts
07-Jan-18 12:30 35.845594 -114.431226 338 11998ft 283kts
07-Jan-18 12:31 35.918994 -114.466135 338 12001ft 283kts
07-Jan-18 12:32 35.994147 -114.501356 339 10930ft 292kts
07-Jan-18 12:33 36.045620 -114.564650 283 9218ft 260kts
07-Jan-18 12:34 36.065251 -114.645286 313 8027ft 228kts
07-Jan-18 12:35 36.071578 -114.713394 243 7592ft 243kts
07-Jan-18 12:36 36.078700 -114.793908 263 5596ft 245kts
07-Jan-18 12:37 36.071392 -114.876117 284 3856ft 237kts
07-Jan-18 12:38 36.076350 -114.942159 266 3793ft 193kts
07-Jan-18 12:39 36.073298 -115.007924 269 3805ft 187kts
07-Jan-18 12:40 36.073767 -115.065217 270 3135ft 141kts
07-Jan-18 12:41 36.073693 -115.116437 270 2298ft 146kts
07-Jan-18 12:42 36.074314 -115.154234 296 2189ft 33kts
07-Jan-18 12:43 36.077415 -115.158237 0 2189ft 0kts
07-Jan-18 12:44 36.077574 -115.158201 26 2189ft 8kts
07-Jan-18 12:45 36.078010 -115.150231 94 2189ft 23kts
07-Jan-18 12:46 36.080193 -115.144807 359 2189ft 16kts

Navigation Log

Ident Type
Flight plan parsing failed, navigation log unavailable